Detall de PIREP

Printer-friendly versionPDF version

[2012/12/20 10:55:00]
Flight IATA:CT1004
Pilot Number:042
Company ICAO:CAT
Aircraft Type:B738/F
PAX:87
Departing Airport: LXGB
Destination Airport: LEAL
Alternate Airport:LEVC
Online: VATSIM
Route:PIMOS UM445 RAKOR DCT ROLAS UN851 RESTU
Flight Level:F320
No Slew and time accel
No pause
Crash detect
Detect pilot in Cockpit between each 30 and 45 minutes
10:55 Zero fuel Weight: 115600 Lbs, Fuel Weight: 46056 Lbs
10:55 VATSIM:LXGB 200950Z 30009KT 9999 FEW025 SCT250 17/14 Q1023 NOSIG
10:55 VATSIM:LEAL 201030Z 24009KT 200V260 CAVOK 17/09 Q1020 NOSIG
10:55 VOICE CATALONIAN/X-MAS CHARTER
11:01 Parking Brakes off
11:08 Take-off
11:08 Take off Weight: 160962 Lbs
11:08 Wind: 254º @ 009 Knots Heading: 264º
11:08 POS N36º 09´ 07´´ W005º 21´ 48´´
11:08 Flaps:5 at 171 Knots
11:08 Gear Up: 171 Knots
11:09 Flaps:4 at 166 Knots
11:09 Flaps:3 at 180 Knots
11:10 Flaps:2 at 207 Knots
11:10 Flaps:1 at 207 Knots
11:11 Flaps:0 at 210 Knots
11:23 Wind:294º@059 Knots Heading: 048º Ground Speed: 474 Knots Altitude 26601 ft
11:26 TOC
11:26 Fuel Weight: 41327 Lb
11:36 TOD
11:36 Fuel Weight: 40310 Lb
11:38 Wind:302º@076 Knots Heading: 056º Ground Speed: 463 Knots Altitude 28704 ft
11:51 Flaps:1 at 214 Knots
11:51 Flaps:2 at 215 Knots
11:52 Flaps:3 at 203 Knots
11:52 Flaps:4 at 190 Knots
11:53 Wind:266º@005 Knots Heading: 103º Ground Speed: 194 Knots Altitude 2995 ft
11:53 Gear Down: 170 Knots
11:53 Flaps:5 at 170 Knots
11:53 Flaps:6 at 168 Knots
11:54 Flaps:8 at 160 Knots
11:58 TouchDown:Rate -71 ft/min Speed: 130 Knots
11:58 VATSIM:LEAL 201130Z 21004KT 180V240 CAVOK 17/11 Q1020 NOSIG
11:58 Land
11:58 Wind:193º@004 Knots
11:58 Heading: 101º
11:58 Flight Duration: 00:50
11:58 Landing Weight: 154486 Lbs
11:58 POS N38º 16´ 52´´ W000º 33´08´´
12:03 Parking brakes on
12:03 Block to Block Duration: 01:02
12:03 Final Fuel: 38470 Lbls
12:03 Spent Fuel: 7585 Lbls
12:03 Flight Length: 306 NM
12:03 TOD Land Length: 113 NM

Exportar CSV

Powered by Drupal - Modified by Danger4k